events-overview

Kinetic Half

 

Overall

Lake Anna State Park - Spotsylvania, VA 5/10/2014 07:00AM

** Results are for the private use of participants and are the Intellectual Property of Set Up Events. Unauthorized use of these results is prohibited.

Place Bib Co Ag S NAME city/state Rank SWIM Rank T1 Rank Bike Rank T2 Rank RUN PENALTY TIME DQ
1204 44MKelly WilliamsonFairfax VA2400:30:295900:02:26102:11:322900:01:11401:27:33 04:13:10 
287 37MRobert GreenMidlothian VA600:27:16400:01:33202:18:04200:00:441301:31:44 04:19:20 
3524 26MJacob GildenArlington VA6400:32:338600:02:411102:24:292700:01:09101:21:56 04:22:45 
4254 40MBrian LovettAllentown PA300:25:54700:01:461202:24:51300:00:531001:30:32 04:23:54 
5415 39MBrady DehoustReston VA5900:32:2010500:02:47502:20:521900:01:06301:27:23 04:24:27 
6392 29MMatt MlachakPoquoson VA12800:35:252300:02:05902:23:564600:01:19901:29:56 04:32:40 
796 44MChad AlbrightRoanoke VA4900:31:421200:01:56702:22:2617000:02:112101:34:34 04:32:48 
8279 28MRyan HuntWashington DC8800:33:354100:02:193302:32:002000:01:06201:24:10 04:33:08 
9283 23MQuinn GirouxBlacksburg VA100:24:31300:01:312902:30:421400:01:022401:35:35 04:33:19 
10205 40MJoel BellVirginia Beach VA4800:31:411700:02:02602:21:20500:00:554401:39:43 04:35:38 
11525 33MDaniel RoyceRichmond VA200:25:472100:02:053402:32:031000:00:582801:36:54 04:37:46 
12320 44MDarren WrigleyWarrenton VA12400:35:153700:02:151002:24:231500:01:032201:35:08 04:38:03 
133MM37MKevin SoederJacksonville NC13700:35:462400:02:063002:31:18900:00:58601:28:07 04:38:13 
14227 43MTerry Mannion JrWest Chester PA4100:31:152700:02:062302:29:319500:01:382001:34:31 04:38:59 
15143 27MRonald PapaArlington VA400:26:5011700:02:566202:36:593800:01:151201:31:25 04:39:24 
16268 38MChad WolfAlexandria VA4400:31:237000:02:332602:30:125700:01:221601:33:58 04:39:27 
17344 44MJohn SchlosserKennett Square PA2200:30:224900:02:23802:23:168200:01:313401:38:4100:04:0004:40:10 
1863 45MSteven SmithHampton VA4000:31:1314900:03:122802:30:425400:01:211101:30:3300:04:0004:40:59 
19151 36MAdam GoergeRuckersville VA7200:32:514800:02:223502:32:184100:01:171901:34:22 04:43:09 
20110 24MMohammad SaadCary NC13500:35:449400:02:434902:35:247500:01:28501:27:54 04:43:11 
21385 23MWyatt LowdermilkBlacksburg VA7500:32:535600:02:251602:27:343600:01:144101:39:35 04:43:38 
22336 35MJack BasileMacungie PA7800:32:55900:01:551802:28:13800:00:585401:41:58 04:45:57 
2329 47MPatrick LeonardFalls Church VA9900:34:049500:02:441702:27:5612700:01:484501:39:43 04:46:13 
2485 24MJames SheridanEllicott City MD2900:30:37600:01:434502:35:082600:01:083201:38:13 04:46:48 
2531 47MScott BaldwinReston VA7400:32:536600:02:314702:35:171600:01:042301:35:11 04:46:53 
26358 52MDavid PhillipsArlington VA10900:34:4513500:03:082402:29:377000:01:273001:38:01 04:46:56 
2779 23MIan RappaportCharlottesville VA9700:34:02500:01:432002:28:233900:01:165301:41:42 04:47:03 
28215 20MDylan KeightleyAlexandria VA500:26:533900:02:1611302:43:2612200:01:461801:34:18 04:48:37 
29331 40MBryson FilbertPotomac MD3500:30:595700:02:264002:34:2812100:01:464301:39:37 04:49:14 
30399 33MAndrew CrossKailua HI13300:35:41800:01:473202:31:498400:01:333701:39:15 04:50:02 
PlaceBibCoAgSNAMEcity/stateRankSWIMRankT1RankBikeRankT2RankRUNPENALTYTIMEDQ
3198 29MSteven KellerNewport News VA6000:32:255100:02:233602:33:264500:01:194901:40:52 04:50:23 
32315 39MGeoffrey DefilippiFredericksburg VA2000:29:474400:02:206802:37:424000:01:173901:39:21 04:50:26 
33276 47MJohn FitzgeraldChesapeake VA9200:33:483800:02:164102:34:31700:00:563801:39:20 04:50:49 
342MM27MCraig MillerAlexandria VA4700:31:361000:01:554302:35:011200:00:595101:41:22 04:50:51 
3556 42MAdam FragerNewport News VA5200:31:564500:02:213102:31:367400:01:276101:43:58 04:51:16 
36370 33MMichael WolfeVirginia Beach VA12700:35:2012300:02:586402:37:102400:01:072601:35:55 04:52:29 
37348 38MJames WilsonWashington DC17100:37:003600:02:141402:26:414900:01:207001:45:43 04:52:57 
38224 49MCharles SmithRoanoke VA6800:32:453500:02:122702:30:144400:01:187601:46:43 04:53:09 
39338 35MBrady NelsonArlington VA8900:33:392900:02:075102:35:273300:01:135201:41:23 04:53:46 
40352 35MKai FilionWashington DC16600:36:5335400:05:108002:39:0824600:02:47801:29:52 04:53:49 
41413 32MCharles KaplanAlexandria VA10400:34:347800:02:388502:40:005500:01:222701:36:08 04:54:40 
42312 33MMatthew DiehlCatasauqua PA11600:35:027900:02:391502:27:322100:01:068601:48:30 04:54:46 
43528 37MJohn DoughertyRichmond VA5600:32:1110100:02:467602:38:3612400:01:484701:40:27 04:55:46 
44180 29FSarah BreevoortCharlottesville VA8500:33:214700:02:228802:40:208300:01:323301:38:16 04:55:48 
45164 37MChris LombardiWashington DC4500:31:2513000:03:0614302:47:429600:01:381501:33:17 04:57:07 
46248 36MJeffrey McCroskeyNorfolk VA9500:33:533300:02:106502:37:143500:01:135701:42:54 04:57:22 
47309 46MRich JoyAlexandria VA8000:33:0313300:03:076002:36:416800:01:265801:43:08 04:57:23 
4883 25MAlex SpottScranton PA16200:36:473100:02:087902:39:025600:01:223501:38:53 04:58:10 
49362 28MMark CastrovinciRaleigh NC8100:33:096000:02:2710002:41:5510200:01:403601:39:11 04:58:20 
50289 21MMatthew SargeSan Jose CA2300:30:2517200:03:2021202:55:2710700:01:43701:28:39 04:59:33 
51523 53MVincent OrtizChesapeake VA20700:38:2117100:03:208202:39:2621900:02:352501:35:54 04:59:33 
52403 66MWilliam WrenArlington VA1900:29:4714600:03:117102:38:1813600:01:518101:47:31 05:00:36 
53153 43MChuck McGeeUrbana MD16400:36:5026400:04:083802:34:1829600:03:275501:42:00 05:00:41 
54172 55MJohn MazurArlington VA5800:32:2020500:03:355602:36:2110600:01:437701:47:19 05:01:15 
5594 51MEric MackemReston VA10000:34:0815100:03:134202:34:3917100:02:127901:47:25 05:01:36 
56166 38MAlejandro EscobarArlington VA3600:31:0613100:03:0712902:45:549000:01:364801:40:51 05:02:32 
57108 29FBrielle DanaRockville MD10100:34:106900:02:3212302:44:533200:01:124601:40:01 05:02:47 
5857 50MJames GodekVa Beach VA25200:39:5020900:03:375402:35:518100:01:305601:42:40 05:03:25 
59243 46MJeff FoxRichmond VA6100:32:272200:02:057002:38:111300:01:029601:49:45 05:03:28 
60218 21MStephen JordanBlacksburg VA6700:32:44200:01:2311202:43:13400:00:546801:45:34 05:03:46 
61298 38MThomas PulhamWashington DC11100:34:4915300:03:139302:40:444800:01:196001:43:45 05:03:48 
PlaceBibCoAgSNAMEcity/stateRankSWIMRankT1RankBikeRankT2RankRUNPENALTYTIMEDQ
62394 21MDane KingDeWitt VA2800:30:361600:02:006702:37:355800:01:2210901:52:47 05:04:19 
63236 45MJed VanichkachornManakin Sabot VA10200:34:2412000:02:579202:40:395200:01:217201:46:10 05:05:29 
64327 35MTravis EadsLewisburg WV700:27:182600:02:065202:35:399700:01:3815401:59:41 05:06:21 
65363 35MDan BeckmannCentreville VA35700:44:0622200:03:437302:38:2921600:02:332901:37:41 05:06:30 
66208 49MIsidoro ReverteHerndon VA6500:32:3538900:05:524402:35:0210300:01:4010501:52:05 05:07:13 
67324 43FLaura WhitlowRoanoke VA1200:27:4125700:04:0211102:43:1124900:02:487301:46:2400:04:0005:08:04 
6867 37FErin WreskiVirginia Beach VA14600:36:137100:02:3311902:43:496900:01:266301:44:04 05:08:05 
69265 43MPhilip BaetckeReston VA9400:33:526300:02:2913002:46:003700:01:157101:45:59 05:09:33 
70181 36MThomas GenareoLakewood NY23000:39:129700:02:457802:38:594200:01:178001:47:25 05:09:37 
7199 27FHolli FinnerenWashington DC19800:37:572000:02:055902:36:361100:00:5910701:52:43 05:10:17 
72174 33FMacKenzie YatesWashington DC9300:33:512800:02:0613802:47:064700:01:197401:46:25 05:10:45 
73379 31MKyle AaronsWashington DC24300:39:2731300:04:355502:35:5419100:02:229001:48:43 05:10:59 
7453 54MTim DuffeyArlington VA19100:37:4423500:03:528702:40:086000:01:238901:48:37 05:11:42 
7520 33FElisha CookChesapeake VA17700:37:117700:02:3812802:45:501800:01:056701:45:32 05:12:14 
76258 47MStephan HessPenn Laird VA13000:35:3127900:04:1511502:43:4413000:01:497801:47:21 05:12:38 
77187 37MAndrew JonesArlington VA13400:35:429100:02:437502:38:363400:01:1312601:54:59 05:13:10 
78343 35MStephen MillerHampton VA25400:39:547400:02:369102:40:265000:01:219901:50:03 05:14:17 
79393 46MIan HoffmanWashington DC20800:38:216800:02:329602:41:1720700:02:279701:50:01 05:14:36 
80203 42FKasha WilliamsonFairfax VA19700:37:556500:02:3012002:43:5514200:01:538701:48:33 05:14:43 
81251 43FTjede McVeyLandenberg PA12200:35:105300:02:2411402:43:4113300:01:5110601:52:31 05:15:34 
82410 41MBryan PeacheyRaleigh NC12500:35:1710700:02:4910702:42:5810100:01:3911101:52:55 05:15:37 
83161 36MSebastien AudyWashington DC29500:41:2429700:04:2411802:43:4810000:01:396501:44:29 05:15:43 
8417MM32MDavid BecerraVirginia Beach VA19300:37:4817600:03:2315402:49:048700:01:346201:44:03 05:15:50 
85520 33MAlex RockWashington DC32400:42:179800:02:4510302:42:417100:01:278301:47:35 05:16:44 
86369 23MGuy SkordAnnapolis MD13600:35:4515200:03:1324903:01:3415600:02:041701:34:10 05:16:44 
87184 37MPatrick PannettWashington DC23900:39:2010400:02:4710402:42:456200:01:247501:46:3400:04:0005:16:48 
88169 44FOlwen HuxleyWashington DC3800:31:088900:02:428402:39:516300:01:2416602:01:50 05:16:53 
89190 28MJon PooleAlexandria VA12900:35:308400:02:4016202:50:01600:00:559101:48:46 05:17:51 
90137 23MAndrew ColeSan Jose CA1100:27:3417500:03:2313902:47:076100:01:2414701:58:55 05:18:21 
91152 57MThomas JonesAshburn VA16900:36:5823400:03:5114902:48:0718700:02:218201:47:35 05:18:50 
92384 29MJavier MontenegroFrederick MD33200:42:408000:02:399402:41:0515800:02:0610001:50:36 05:19:03 
PlaceBibCoAgSNAMEcity/stateRankSWIMRankT1RankBikeRankT2RankRUNPENALTYTIMEDQ
9325 42MMichael SliwaWashington DC4600:31:3416800:03:1912502:45:396700:01:256601:45:1400:12:0005:19:08 
94238 33MPatrick BurnsArlington VA16800:36:5812500:02:5913502:46:5011100:01:4410301:51:18 05:19:46 
95201 49MJames LutzReston VA29900:41:3413900:03:098102:39:252200:01:0712501:54:50 05:20:03 
9643 31FAllie SilvermanWashington DC16500:36:5119600:03:3119602:53:5411600:01:456401:44:26 05:20:25 
977MM45MRodolfo QuispeCedar Point NC38600:46:5430100:04:256302:37:007300:01:2710201:50:48 05:20:34 
98300 41MBrent McDufieGaithersburg MD16300:36:496100:02:2811702:43:472500:01:0813201:56:30 05:20:39 
99402 42FKristin McCannAlexandria VA30500:41:4714300:03:1021702:56:2911000:01:443101:38:06 05:21:14 
10026 33FBethann SliwaWashington DC28100:40:508200:02:3917102:50:597700:01:296901:45:38 05:21:33 
101262 38FCarol CohenArlington VA30700:41:5111300:02:5420802:55:168800:01:345001:40:54 05:22:27 
102163 29FChristina NuttingWashington DC5300:31:573400:02:1118602:52:573100:01:1212001:54:30 05:22:44 
103361 36MTodd StaffordLeesburg VA16000:36:4629600:04:237202:38:2315900:02:0616802:02:03 05:23:39 
104466C32MFrank ScalzoRotterdam Junction NY27900:40:489600:02:4410102:42:0031600:03:5512301:54:45 05:24:10 
105355 25MDan BinderWashington DC1700:28:3920400:03:3517502:51:2113200:01:5014901:59:04 05:24:26 
106522 55MJoseph Baird2647 Falls Church VA21700:38:4421600:03:405802:36:3310900:01:4317902:04:02 05:24:40 
10719 31MDaniel RiegelWashington DC36700:44:4716200:03:1517702:51:3912000:01:464201:39:3600:04:0005:25:01 
108328 42MStephen HunniusAlexandria VA12600:35:1939500:06:0612402:45:1834400:04:3711701:54:03 05:25:22 
109390 56FDebi BernardesKing George VA7100:32:494000:02:1719202:53:3323200:02:4312801:55:03 05:26:22 
110129 48FJuda McGannonHunt Valley MD10800:34:4119200:03:2922502:57:087200:01:279501:49:42 05:26:26 
111303 35MDavid TaylorStafford VA26200:40:1913200:03:0715802:49:1311800:01:4510401:52:05 05:26:27 
112128 38MGiovanni CordovaReston VA25900:40:0433000:04:4913702:46:5213900:01:5211201:53:00 05:26:35 
113341 47FStephenie WinterWrightsville Beach NC14900:36:173200:02:1013102:46:0019200:02:2215602:00:00 05:26:47 
11474 36MMatthew StromWashington DC24100:39:2219800:03:339002:40:2423600:02:4516202:01:18 05:27:20 
115231 34MLucas PaganiniWashington DC10500:34:3516100:03:1515202:49:0214700:01:5812101:54:3300:04:0005:27:22 
116139 37FJulie ParksAlexandria VA12100:35:098300:02:4018902:53:176400:01:2412901:55:12 05:27:40 
1176 58MGreg GuintherRichmond VA11300:34:515500:02:259802:41:1810400:01:4120002:07:33 05:27:46 
118375 46MMichael WhitehurstSouth Mills NC20000:37:5919000:03:2820602:54:375300:01:2110101:50:46 05:28:10 
1195MM39MJoel FreyenhagenStone Ridge VA20300:38:0837600:05:2914002:47:1024100:02:4712401:54:50 05:28:22 
12021 43MMark LindsayHigh Point NC18400:37:2825200:04:0019502:53:5330200:03:359401:49:40 05:28:33 
121274 43FMichelle JoubranWashington DC5500:32:0011500:02:5516302:50:1412600:01:4816502:01:46 05:28:41 
122121 47MMark DownesBel Air MD8400:33:197500:02:379902:41:4510800:01:4313901:57:3700:12:0005:28:59 
123133 48MMichaelson BuchananRichmond VA18500:37:3018900:03:288902:40:2321700:02:3418602:05:09 05:29:02 
PlaceBibCoAgSNAMEcity/stateRankSWIMRankT1RankBikeRankT2RankRUNPENALTYTIMEDQ
12415MM33MGlen CookSilver Spring MD7900:32:5626900:04:1124203:00:5516800:02:109201:48:53 05:29:03 
125396 48FDiana LohmeyerVienna VA12000:35:078100:02:3920502:54:3414500:01:5613001:55:22 05:29:37 
126374 50MCarlos SilvaPotomac MD25000:39:4116600:03:1821502:56:075100:01:219301:49:21 05:29:46 
12777 51MCarl SchneiderEllicott City MD35600:44:059200:02:4310502:42:479100:01:3615001:59:11 05:30:20 
128162 51MFernando CarboneBethesda MD22900:39:1135300:05:1021002:55:2016300:02:088801:48:36 05:30:23 
12958 30MBryan SnyderGaithersburg MD14500:36:1214400:03:1119102:53:2822600:02:4012701:55:00 05:30:29 
130136 34MNick HussonKing George VA23200:39:1524900:04:0027703:05:0126900:03:024001:39:25 05:30:41 
131288 37MDaniel ShomakerNorfolk VA11800:35:0333100:04:5018302:52:3227300:03:0313301:56:30 05:31:56 
13297 29MKarl UlmanisLexington Park MD18300:37:2323900:03:5416102:49:5318500:02:1914601:58:52 05:32:19 
133373 55FSusan SwansonNorfolk VA10700:34:394600:02:2217002:50:582300:01:0717702:03:47 05:32:51 
134116 28MMichael BuonocoreArlington VA23400:39:1612600:02:5914802:47:5933800:04:2614501:58:51 05:33:30 
135104 44MGuillermo CabreraWashington DC32900:42:2322600:03:4623102:58:128600:01:348401:47:39 05:33:31 
136404 39MLee YountsRichmond VA18900:37:3711600:02:5515902:49:1516500:02:0916902:02:07 05:34:01 
137378 34FErin GreenWilmington NC8600:33:2121700:03:4022302:57:069800:01:3814201:58:25 05:34:09 
138134 53MPhillip KardisFalls Church VA20600:38:1627700:04:1315602:49:0817200:02:1315802:00:26 05:34:14 
139347 45FChristy JonesFayetteville NC32800:42:2334500:05:0631803:10:4532200:04:021401:32:04 05:34:17Y
140200 62MDennis RainearRichmond VA14400:36:0912900:03:055702:36:2419900:02:2523002:12:5600:04:0005:34:57 
14184 55MEd NorlanderCulpeper VA28000:40:482500:02:0617302:51:036500:01:2415501:59:42 05:35:01 
14292 33MJustin MarkelHavre De Grace MD19600:37:5121100:03:3814702:47:5817600:02:1417402:03:29 05:35:08 
143188 42FJennifer BoyntonAlexandria VA17900:37:157600:02:3717902:52:158900:01:3516302:01:31 05:35:11 
144100 28FSarah ThomasVirginia Beach VA1400:28:039000:02:4214202:47:3228600:03:1523702:14:22 05:35:52 
145311 55FMary Catherine MalinMcLean VA9600:33:5311400:02:5524603:01:106600:01:2413501:56:41 05:36:02 
146377 42FMisty BrownWilmington NC7600:32:5410600:02:4916002:49:2413500:01:5121802:10:32 05:37:27 
147406 42MVaughn TempleFrederick MD8300:33:1627000:04:1112102:44:2033300:04:1822902:12:23 05:38:26 
148209 51MDavid KulikBethesda MD20200:38:0636500:05:1824303:00:5710500:01:4211001:52:48 05:38:49 
149109MC43MJeff HalperDerwood MD15900:36:4415500:03:1410902:43:019300:01:3823602:14:15 05:38:50 
150294 26FStevie SmithWashington DC10300:34:2623000:03:4724803:01:1718800:02:2113801:57:16 05:39:06 
151356 39MMichael ReadBurke VA31700:42:0923200:03:5018702:53:0232000:03:5913401:56:40 05:39:38 
152313 59MRob ColburnAshburn VA10600:34:3811000:02:5115502:49:0525800:02:5421602:10:28 05:39:54 
153389 42MJohn SchmidtFalls Church VA19400:37:4930600:04:2920702:54:4311900:01:4516702:01:54 05:40:39 
154293 54MKeith AlstonChesapeake VA30800:41:5439300:06:0420902:55:1728700:03:1511901:54:29 05:40:58 
PlaceBibCoAgSNAMEcity/stateRankSWIMRankT1RankBikeRankT2RankRUNPENALTYTIMEDQ
155305 27MMartin JacarusoGraham NC22700:39:045200:02:2316502:50:3020600:02:2719802:06:56 05:41:18 
156105 46MMike StantonWashington DC27100:40:3016000:03:1522702:57:1729400:03:2413701:57:14 05:41:38 
157334 22FAlyssa KasherCarmel IN3100:30:5412400:02:5826903:04:1513400:01:5116402:01:45 05:41:42 
15824 40MBen GuthrieOlney MD17500:37:0737300:05:2621402:56:0035900:05:3914101:58:03 05:42:13 
159217 30FCaroline RinellaLynchburg VA15000:36:2025300:04:0018402:52:3425200:02:4919702:06:37 05:42:17 
160192 25MEnser ColeFalls Church VA1600:28:3319300:03:3120302:54:243000:01:1124102:14:47 05:42:24 
161173 31MCamilo RamirezWashington DC23700:39:1933200:04:5014502:47:5012300:01:4820902:09:00 05:42:44 
16218MF30FJessica JohnsonBethesda MD15800:36:4120100:03:3429003:06:2021800:02:3511401:53:39 05:42:46 
163247 46MDavid CulbertsonPittsboro NC23800:39:1927800:04:1318102:52:2222800:02:4218102:04:20 05:42:54 
164340 50MLowell GouldRocky Point NC8200:33:16100:01:2013402:46:32100:00:4327902:21:17 05:43:05 
165531 42MReza MahbodArlington VA24400:39:2731800:04:3820002:54:1530400:03:3816102:01:14 05:43:08 
166229 48MAndrew HeckAmsterdam NY32700:42:2224500:03:5621302:55:527600:01:2915301:59:38 05:43:15 
167150 24MBenjamin HanClifton VA15600:36:354200:02:1931103:09:3113100:01:4911601:53:59 05:44:11 
16845 54MDaun SigafooseAbingbon MD5700:32:1618200:03:257402:38:3011200:01:4431202:29:10 05:45:04 
169122 31MRoy CheeksBaltimore MD28400:40:5613700:03:0819902:54:014300:01:1819102:05:45 05:45:05 
17013MM49MBrian BucklesSilver Spring MD22300:38:5819700:03:3323802:59:4125100:02:4915702:00:07 05:45:06 
171376 46MScott FirestineHopewell VA24700:39:3615400:03:1318002:52:209400:01:3820602:08:42 05:45:27 
17214MM36MAndrew SergentLake Ridge VA32500:42:1829000:04:2117802:52:0119700:02:2418402:04:41 05:45:44 
173342 45MMarty DejosephWilmington NC14700:36:1418400:03:2619402:53:5122400:02:3921402:09:38 05:45:47 
174469A42FMichele BullEldersburg MD29800:41:3127400:04:1215302:49:0223800:02:4620502:08:29 05:45:58 
175235 50MGeorge JanvierAnnapolis MD33600:43:0028100:04:1516802:50:4429900:03:3318302:04:34 05:46:03 
176118 32MBruce ChamblissHalethorpe MD7300:32:521800:02:0215702:49:1114400:01:5327302:20:34 05:46:30 
177138 31MMatthew HussonFredericksburg VA17300:37:0227100:04:1134203:14:4323300:02:438501:48:06 05:46:43 
178130 37MThomas CookKing George VA13200:35:3714000:03:0930503:08:4815700:02:0513601:57:11 05:46:49 
179467C33MJonathan PottertonVirginia Beach VA22100:38:5412200:02:5812702:45:4627700:03:0525302:17:07 05:47:48 
18064 28MKevin HagemanArlington VA24200:39:2334800:05:0729503:07:0727200:03:0311301:53:16 05:47:54 
181202 39MChristopher BusherSandy Hook VA24800:39:3925100:04:0023402:58:5223900:02:4617102:02:51 05:48:07 
182400 47MRobert WoodsStafford VA36600:44:4414800:03:1216902:50:549900:01:3917502:03:4300:04:0005:48:10 
183411 41MDavid GallagherRichmond VA14000:35:5926200:04:0718802:53:0626500:02:5922702:12:01 05:48:10 
184223 53MJoel IselyPoquoson VA6600:32:355800:02:2620402:54:2916600:02:1025202:16:56 05:48:34 
185480MC51MMichael KemenBel Air MD25700:40:0010900:02:5012602:45:4026100:02:5825402:17:18 05:48:45 
PlaceBibCoAgSNAMEcity/stateRankSWIMRankT1RankBikeRankT2RankRUNPENALTYTIMEDQ
186264 47MTim RohrbaughHaywood VA25300:39:5017300:03:2114402:47:4720400:02:2624702:16:05 05:49:27 
187397 48FMary Lynn HansenWoodstock MD23300:39:1612800:03:0313302:46:0512500:01:4826402:19:43 05:49:54 
18871 38MDan MenmuirWoodbridge VA22000:38:5222000:03:4320202:54:1611400:01:4422502:11:36 05:50:09 
189225 49FJulie KennedyFalls Church VA35300:43:5217800:03:2324103:00:388500:01:3315902:00:52 05:50:16 
19012MM42MJ.P. McDonoughOakton VA34700:43:2814200:03:1020102:54:1511700:01:4520402:08:03 05:50:38 
19133 31FLillian ThomasGermantown MD800:27:2110000:02:4534003:14:0813800:01:5118802:05:17 05:51:22 
192272 31FMolly GiammarcoWashington DC22800:39:1023800:03:5334303:15:00     05:51:22 
193242 41MMarius JovaisaVilnius AK34500:43:2028500:04:1828503:06:0514100:01:5313101:55:50 05:51:22 
194323 47FB. Lynn FollansbeeBethesda MD24600:39:3226300:04:0827603:04:50     05:51:42 
195221 45MJohn McManusMcLean VA9000:33:4119400:03:3114102:47:2712900:01:4929902:25:25 05:51:50 
196195 48MGreg ColemanAlexandria VA31900:42:1219900:03:3319802:54:0011300:01:4421702:10:30 05:51:57 
197198 47MBill BurkMcLean VA25800:40:0332800:04:4928203:05:2823400:02:4414801:58:59 05:52:01 
198106 30FAllison NordbergWashington DC19200:37:4616400:03:1831003:09:3030600:03:4414001:57:51 05:52:06 
199211 42MMike BruwelheideVirginia Beach VA21600:38:4120800:03:3619302:53:3831400:03:5323102:13:01 05:52:47 
200360 42MTimothy WillisSilver Spring MD32300:42:1738500:05:4316702:50:4423100:02:4322602:11:47 05:53:11 
201333 31FKim KellyAlexandria VA26100:40:1527200:04:1232903:12:4113700:01:5111801:54:17 05:53:14 
202285 45MChris TolsdorfWest Chester PA4300:31:2118500:03:2621802:56:2916000:02:0627202:20:27 05:53:49 
203387 49MLarry GoldsteinBel Air MD15200:36:2530000:04:2514602:47:5721500:02:3228402:22:43 05:54:00 
204171 43MRich GroveAshburn VA30400:41:4739200:06:0318502:52:3932700:04:0921502:09:41 05:54:17 
205257 51MKevin ChidwickManakin Sabot VA14300:36:0726100:04:0722402:57:0819600:02:2323902:14:42 05:54:25 
206275 31MAnthony HippleVirginia Beach VA35100:43:4517000:03:1919702:53:5916100:02:0720102:07:3900:04:0005:54:48 
20744 52MDavid SullivanAlexandria VA40800:50:1518700:03:2730803:08:5420300:02:259801:50:02 05:55:02 
20823 35FKristin HerringNewport News VA30600:41:4938700:05:5036703:21:3621400:02:325901:43:23 05:55:08 
209245 27FCasey CrowleyRockville MD15500:36:3228300:04:1724003:00:3522000:02:3622202:11:26 05:55:24 
210316 40MMatt McCormackAlexandria VA6300:32:3222500:03:4523202:58:2125900:02:5525802:18:03 05:55:34 
211228 40MEriks RichtersWashington DC20900:38:2834100:05:0127203:04:4627100:03:0318202:04:24 05:55:41 
212301 31MChris MurrerWashington DC23600:39:1829300:04:2328103:05:2624200:02:4717802:03:49 05:55:41 
213381 36MJosh LemastersCulpeper VA34600:43:2739000:05:5927103:04:4030100:03:3314301:58:29 05:56:06 
214407 54MWilliam SickenbergerReston VA7700:32:5430800:04:3116402:50:2125400:02:5330102:25:58 05:56:34 
215290 61MJim WaterhouseValatie NY37300:45:3033500:04:5221102:55:2227800:03:0520302:07:59 05:56:47 
216306 26MAlexander Merrick-TagoreRichmond VA27400:40:3131200:04:3517402:51:0524700:02:4725602:17:51 05:56:47 
PlaceBibCoAgSNAMEcity/stateRankSWIMRankT1RankBikeRankT2RankRUNPENALTYTIMEDQ
217177 37MJoel CohenArlington VA28200:40:5142600:08:4128903:06:1333500:04:2210801:52:4300:04:0005:56:48 
218350 52MDave HarperReston VA35800:44:0738200:05:3715102:48:5122700:02:4124602:15:58 05:57:13 
219183 53MSam ScogginReston VA3200:30:5519500:03:3122202:57:0521300:02:3228902:23:45 05:57:47 
22093 35MFrantisek SovaTowson MD34800:43:2930300:04:2823302:58:3011500:01:4421302:09:38 05:57:47 
22134 36FCherie BurnetteHerndon VA21000:38:2818300:03:2635303:17:3434600:04:4212201:54:41 05:58:49 
222199 43FKristin SwiftSt Marys City MD29000:41:1328600:04:1829903:07:3318100:02:1717602:03:46 05:59:06 
223277 38MJohn RahaghiWashington DC32600:42:1821000:03:3726803:04:0125000:02:4819502:06:23 05:59:06 
224115 35FElaine WongGaithersburg MD3900:31:1239600:06:1030903:09:1827600:03:0521202:09:32 05:59:14 
225366 42MJohn PercherkeBristow VA36100:44:2720700:03:3625703:02:3126700:03:0119402:06:02 05:59:35 
226308 47MMark ThalmanBethesda MD21900:38:5035700:05:1426303:03:1634800:04:5020702:08:48 06:00:56 
22778 38FSara SwensonReston VA3300:30:5610200:02:4622802:57:195900:01:2331402:29:17 06:01:40 
228146 52FJoanna SchmickelArlington VA29200:41:1830700:04:3034403:15:0217500:02:1415101:59:19 06:02:21 
229319 42MJay CochranMontgomery Village MD39600:48:2239700:06:1513202:46:0125300:02:5226502:19:49 06:03:16 
230483NM43MDonghui ChenOak Hill VA41900:53:4242000:07:5226703:03:5833000:04:1411501:53:55 06:03:40 
231194 46FMary PickeringArlington VA19900:37:5911100:02:5130703:08:5412800:01:4922802:12:16 06:03:47 
232239 38MJoseph CafferataWashington DC18100:37:1931600:04:3732403:11:0815000:02:0120802:08:57 06:04:00 
233271 57MVadim ObertyshevAmsterdam NY26500:40:2339100:06:0122002:56:4334500:04:4124902:16:22 06:04:09 
234145 52MJohn SzczygielArlington VA34400:43:1925900:04:0323502:59:0019000:02:2224302:15:44 06:04:27 
235114 29MKristofer PachlaArlington VA40600:49:5915900:03:1521602:56:212800:01:1123402:13:54 06:04:38 
236364 48MTim GavinAthelstan XX35900:44:1538000:05:3530303:08:1916700:02:1018702:05:10 06:05:27 
237337 45FMelissa UpchurchChurch Road VA27700:40:4537800:05:3232003:10:5427500:03:0419002:05:25 06:05:38 
23830 29FLaura ManciniArlington VA15400:36:2730500:04:2933503:13:4118200:02:1821002:09:17 06:06:12 
239353 29MAlejandro CarrilloKennett Square PA31300:42:0429200:04:2228603:06:0726300:02:5822102:11:23 06:06:52 
240304 54MAllen SimcoeFredericksburg VA22200:38:5610300:02:4710802:43:0016900:02:1034002:40:07 06:06:57 
24149 29MJonathan TeterAnnapolis MD39800:48:3836400:05:1729303:06:478000:01:3018502:04:57 06:07:07 
242206 31FJanice KwaWashington DC21500:38:3922100:03:4326503:03:4627000:03:0226102:18:49 06:07:57 
243332 52FKristina AmentAlexandria VA36400:44:3828200:04:1716602:50:3933700:04:2329202:24:10 06:08:05 
244412 45MMatt HartArlington VA2100:30:0941800:07:3517602:51:2736500:06:5532002:32:06 06:08:11 
245372 45MBernie ConatserWoodbridge VA40300:49:4639400:06:0625803:02:3332500:04:0519202:05:53 06:08:21 
246527 59MRene FarissVirginia Beach VA38500:46:4434200:05:0225103:01:4130000:03:3322002:11:23 06:08:21 
247126 31FVictoria HoughtonNorth Bethesda MD18000:37:1738800:05:5233903:14:0833100:04:1519902:07:14 06:08:44 
PlaceBibCoAgSNAMEcity/stateRankSWIMRankT1RankBikeRankT2RankRUNPENALTYTIMEDQ
24839 57MGlenn YoungMattaponi VA11900:35:056200:02:2926403:03:297900:01:2930202:26:28 06:08:58 
249119 47MAlberto GonzalezRockville MD20400:38:1226800:04:1025203:02:1131900:03:5727702:21:00 06:09:28 
250408 52MDavid NatoliArlington VA20100:38:0226000:04:0628803:06:1224000:02:4726002:18:34 06:09:38 
251318 34FSari LongWashington DC39200:47:4232400:04:4331703:10:2522500:02:3918002:04:19 06:09:47 
252273 44MDavid JoubranWashington DC13800:35:4729800:04:2524403:01:0514000:01:5230502:26:49 06:09:56 
253240 35MJonathan BrownHerndon VA22600:39:0418100:03:2524503:01:0720500:02:2629102:24:04 06:10:04 
254148 43FHillary HertlerWashington DC13100:35:3624000:03:5533303:13:3230700:03:4523202:13:25 06:10:11 
255255 45MLloyd BrownBethesda MD23100:39:1410800:02:4937103:23:1819400:02:2317202:03:12 06:10:55 
256286 41MMohammad PartoviGaithersburg MD38400:46:3939900:06:1926203:03:0533600:04:2222402:11:28 06:11:52 
257103 47MGene MurankoBaltimore MD25600:39:5736300:05:1631403:09:4615200:02:0224202:15:28 06:12:27 
258167 41FTracey MelnickWashington DC39100:47:4121300:03:3936403:20:5815100:02:0114401:58:30 06:12:47 
259132 32MChristopher LindenVirginia Beach VA39400:47:4937500:05:2822902:57:4230900:03:4926302:19:15 06:14:01 
260386 23MNicholas EckhoffWilliamsburg VA1000:27:3331100:04:3425603:02:2719500:02:2333302:37:14 06:14:10 
261259 54MGordon HarderBroadalbin NY36000:44:1735600:05:1332203:11:0433200:04:1621102:09:27 06:14:15 
26228 32FElysia MahjoubBaltimore MD31800:42:1125800:04:0327903:05:1018400:02:1927602:20:59 06:14:40 
263321 22FAlexandria GagnonLexington VA25500:39:5628000:04:1532503:11:1027400:03:0425002:16:36 06:14:58 
264101 31FMary CrosbyNorfolk VA37400:45:3119100:03:2933003:12:4315300:02:0222302:11:27 06:15:10 
265295 29FJamie WaterhouseWashington DC41700:53:0823700:03:5329803:07:3328400:03:1220202:07:45 06:15:29 
266368 35FLauren DanaherCarrollton VA17200:37:0018000:03:2432103:11:0318000:02:1628202:22:06 06:15:48 
267479MC46MMichael KelleherWashington DC29600:41:2531500:04:3627003:04:2720200:02:2528602:22:58 06:15:49 
268160 49MKevin KusnerOrient OH19500:37:5141300:07:0633703:13:4919800:02:2424002:14:46 06:15:54 
269269 42MBryan CulipherOakton VA18600:37:3429900:04:2528403:06:0218300:02:1930402:26:45 06:17:03 
270244 47MSean GideonVirginia Beach VA39500:48:1225000:04:0022602:57:1218900:02:2130002:25:25 06:17:08 
271191 31MJacob Stevens-KittnerWashington DC17800:37:1421500:03:4039703:31:2324800:02:4817002:02:07 06:17:10 
272214 45MJames RinellaLynchburg VA23500:39:1635800:05:1423702:59:2434200:04:3331102:28:45 06:17:11 
273220 38FKathy HsuWashington DC37900:46:1821800:03:4127403:04:4817700:02:1527502:20:48 06:17:48 
274155 42MDavid CuttinoRichmond VA33700:43:0438300:05:3825903:02:4132300:04:0228702:23:03 06:18:26 
27559 45FNina CronDpo XX33300:42:4726700:04:1031203:09:3926200:02:5826802:20:06 06:19:38 
276345 41MAndrew BoyleReston VA18700:37:3633700:04:5322102:57:0236400:06:2332502:33:53 06:19:44 
277170 50FMary WagnerVirginia Beach VA33400:42:5214100:03:0933103:13:0015400:02:0326202:19:03 06:20:05 
278113 27FAnne Marie CarsonArlington VA36800:44:5024200:03:5538303:26:2532600:04:0716002:01:11 06:20:25 
PlaceBibCoAgSNAMEcity/stateRankSWIMRankT1RankBikeRankT2RankRUNPENALTYTIMEDQ
279266 40MMark FreemanReston VA13900:35:5212100:02:5823002:58:1128100:03:0934302:40:30 06:20:37 
280297 27MGeorge PiersonArlington VA24000:39:2136600:05:1937503:23:3814300:01:5321902:10:34 06:20:43 
281117 46FJoyce JonesWashington DC35000:43:4216300:03:1630203:08:1714600:01:5728802:23:34 06:20:45 
282465C32MMark RaugustWashington DC30000:41:3629500:04:2327503:04:4928900:03:1830602:26:55 06:20:59 
283405 40MJustin AbernathyWashington DC26900:40:2933900:05:0131303:09:4532100:04:0028102:21:54 06:21:07 
284367 55MJohn OroschSpringfield VA24900:39:4020200:03:3430603:08:5131100:03:5229602:25:14 06:21:10 
285325 33FKate BloodMcLean VA15100:36:2413400:03:0837403:23:3216400:02:0924802:16:10 06:21:20 
28668 34MAllen IrwinAlexandria VA11700:35:0315000:03:1230103:07:5828300:03:1232202:32:40 06:22:03 
28754 39FKim PerkinsRockville MD36200:44:2732600:04:4423602:59:0234100:04:3029702:25:2100:04:0006:22:03 
2888MM46MJohn SpencerBurke VA29100:41:1535100:05:1034803:15:3725500:02:5323802:14:4000:04:0006:23:33 
289280 58FLynn MattucciArlington VA38100:46:1825400:04:0134603:15:1221000:02:3124502:15:54 06:23:55 
290234 51MPhilip DeeterWashington DC39700:48:2424100:03:5537003:22:2830800:03:4619302:05:59 06:24:30 
291478MC46MRobert SmithForest VA16700:36:5437200:05:2525303:02:1231000:03:4933102:36:33 06:24:51 
292260 23MScott HarderBroadalbin NY39000:47:3037000:05:2432703:12:1329000:03:1825102:16:53 06:25:16 
293461 52MRich CarlsonChantilly VA40500:49:5933800:04:5336903:22:2624500:02:4718902:05:24 06:25:27 
294252 60MBruce DouglassFairfax VA37600:45:3934400:05:0525503:02:2123000:02:4231602:29:44 06:25:30 
29551 41MGregory McDonoughWashington DC6900:32:4532100:04:4033203:13:2729200:03:2132102:32:24 06:26:36 
296339 53MWilliam BowenAnnapolis MD21200:38:3340100:06:2333803:13:5036200:06:0528502:22:50 06:27:39 
29781 26FMolly SchmalzbachArlington VA9800:34:0240500:06:3938003:25:3331200:03:5325702:17:59 06:28:03 
29852 41FMonique McDonoughWashington DC33800:43:0724600:03:5726603:03:5529300:03:2332602:34:09 06:28:29 
299314 54FStephanie ColburnBroadlands VA16100:36:4723100:03:4739903:31:5722200:02:3923302:13:42 06:28:50 
30082 50MJim DonleyBethesda MD31200:42:0128800:04:2035703:18:5429500:03:2627002:20:22 06:29:01 
301371 28FHilary HeincerSpringfield VA37200:45:1735900:05:1536503:21:2728000:03:0923502:13:58 06:29:04 
30211MM24MCharles AugustineVirginia Beach VA28800:41:1128400:04:1736203:20:3815500:02:0428002:21:21 06:29:30 
30361 32MRob Van HooserAlexandria VA40100:49:1732500:04:4431503:09:5817900:02:1626702:19:5900:04:0006:30:12 
304212 31FCandice PetersArlington VA37000:45:0221200:03:3832603:11:3420100:02:2530902:28:10 06:30:47 
305179 44MDaniele PodiniWashington DC27200:40:3041100:07:0237203:23:3135300:05:0724402:15:50 06:31:58Y
30670 31FBeth MeloyWashington DC31000:42:0116700:03:1836603:21:3617800:02:1629802:25:24 06:34:32 
307196 53FShirley WoodwardArlington VA35200:43:5229400:04:2328703:06:1020000:02:2534102:40:13 06:37:01 
308127 40FSandra CepedaRockville MD7000:32:4631700:04:3737703:24:1321100:02:3132302:33:23 06:37:29 
30947 55MDouglas HartmanSpringfield VA42700:58:2326600:04:0932803:12:1717300:02:1327402:20:43 06:37:43 
PlaceBibCoAgSNAMEcity/stateRankSWIMRankT1RankBikeRankT2RankRUNPENALTYTIMEDQ
310213 40FGretchen StoneWarrenton VA42300:57:0342300:08:1036803:21:5536900:08:0817302:03:25 06:38:39 
311284 37MAdam SippFredericksburg VA30300:41:4338400:05:4229603:07:2434300:04:3333902:40:01 06:39:22 
312476MC49MRobert VelandVirginia Beach VA41400:51:3637700:05:3229203:06:3236300:06:0531702:29:44 06:39:27 
313193 30FJaime PooleAlexandria VA14800:36:1622800:03:4640103:32:2617400:02:1329502:24:56 06:39:36 
3149MM37MJesse PitzrickStafford VA36500:44:4223300:03:5136103:20:1226800:03:0131002:28:29 06:40:13 
315253 38MSteven KimGaithersburg MD36300:44:3021400:03:3934903:15:5820900:02:3132802:34:39 06:41:15 
316359 38MPatrick RipleyRichmond VA38300:46:2237900:05:3435003:16:1025600:02:5331802:30:23 06:41:20 
31742 37MBrandon NaimolaWashington Dc DC34300:43:1142500:08:3725003:01:3931700:03:5534202:40:1700:04:0006:41:37 
3184MM30MThomas MacPheeFredericksburg VA40700:50:1033600:04:5334503:15:0535400:05:0830302:26:31 06:41:44 
31969 38MAyal CohenAlexandria VA33000:42:2636100:05:1538203:26:2135000:04:5426602:19:5500:04:0006:42:49 
320157 35MDexter BraithwaiteIndian Head MD42800:58:5542400:08:2232303:11:0836800:07:5925502:17:47 06:44:08 
321131 39MMartin WeissGaithersburg MD34100:43:0840900:06:5037603:24:0536100:06:0029402:24:29 06:44:30 
322382 45FCarrie LudwigKing George VA37700:46:1440800:06:4736003:19:5135600:05:1230702:27:20 06:45:22 
323470A35FJennifer GibbinsVienna VA38700:47:1118800:03:2835603:18:259200:01:3733202:36:42 06:47:21 
32432 35MChad StewartLorton VA28900:41:1234000:05:0135903:18:5835500:05:1233402:37:14 06:47:35 
325125 34FRachel LeahyFairfax VA33100:42:2627500:04:1235203:17:2534700:04:4333702:38:53 06:47:37 
326307 53FAlison MillerBlanchard MI34000:43:0831400:04:3639003:29:2727900:03:0630802:27:36 06:47:52 
327287 29MSteve RayBaltimore MD           06:48:24 
32876 50FCheryl LasherGreenwood Village CO29400:41:2132300:04:4337803:24:2034000:04:3032702:34:28 06:49:20 
329222 33FKatie MacKintoshWashington DC11000:34:4624300:03:5540203:34:1426400:02:5932902:34:54 06:50:46 
330111 37FJen GreenDerwood MD26800:40:2714700:03:1230003:07:5723700:02:4535202:56:43 06:51:03 
331207 23MJames StraneIrwin PA29700:41:268700:02:4142103:58:0222300:02:3919602:06:32 06:51:18 
332124 44MJames RichardsonChantilly VA11400:34:5841600:07:2534703:15:2335700:05:2834602:48:26 06:51:38 
333230 25MAnthony LeonettiAmsterdam NY43001:07:3026500:04:0833603:13:4735100:04:5625902:18:0500:04:0006:52:24 
334391 61MBilly LoydMorehead City NC32200:42:1428900:04:2134103:14:1926000:02:5534702:48:50 06:52:37 
33589 26MMark LamontColumbia MD32100:42:1332700:04:4829703:07:3028800:03:1535102:55:01 06:52:46 
33665 48FAlice LoughranWashington DC26000:40:1427300:04:1241303:45:5018600:02:2127102:20:24 06:52:59 
337281 64MJim RudgeNorth Myrtle Beach SC37500:45:3229100:04:2235803:18:5632800:04:1334402:40:46 06:53:48 
338185 59FCatherine LeeCulpeper VA27600:40:3320000:03:3438603:27:4619300:02:2333802:39:50 06:54:03 
339395 24FJasmine FleenorRoanoke VA39900:48:5523600:03:5340603:38:4323500:02:4526902:20:13 06:54:27 
340317 37MMatthew WatsonVienna VA18200:37:2039800:06:1741503:47:2533400:04:1928302:22:34 06:57:53 
PlaceBibCoAgSNAMEcity/stateRankSWIMRankT1RankBikeRankT2RankRUNPENALTYTIMEDQ
341477MC45MJohn PanekBowie MD38800:47:2332200:04:4139103:29:2925700:02:5332402:33:41 06:58:06 
342330 48MJames BorcheltHavre De Grace MD28500:41:0030200:04:2627803:05:0429700:03:2835703:05:46 06:59:43 
343107 30FKatherine WilmesAlexandria VA35400:43:5320600:03:3640903:40:4814800:01:5831502:29:40 06:59:53 
344165 56MBrian GudmundssonFredericksburg VA31100:42:0133400:04:5239503:31:0031300:03:5333602:38:49 07:00:32 
3451MM32MErik BoydVirginia Beach VA41600:53:0322400:03:4438803:28:0832900:04:1331902:31:48 07:00:55 
346256 40FRebecca BatesLeesburg VA26400:40:2041200:07:0441103:41:3135800:05:2831302:29:16 07:03:37 
34737 30FAnne GuzziWashington DC30200:41:3736700:05:2340703:39:3820800:02:2733502:37:37 07:06:41 
34855 45MThomas ColuciaArlington VA37800:46:1642800:09:0239403:30:1334900:04:5233002:36:29 07:06:50 
34916MM42MTom KoderaMcLean VA43101:09:3742100:07:5441803:50:2121200:02:3215201:59:33 07:09:56 
350270 38FGerarda CulipherOakton VA27000:40:2933300:04:5142203:58:2830500:03:4229002:23:50 07:11:19 
351388 39MScott ShakerAlexandria VA39300:47:4520300:03:3435103:16:5622100:02:3735403:00:55 07:11:45 
352310 25FMaryanne HullReston VA42600:57:4824700:03:5739803:31:34     07:11:48 
353322 38FCynthia HallWoodbridge VA42500:57:4335500:05:1241703:49:1326600:02:5927802:21:07 07:16:12 
354463C39MSean PerkinsRockville MD36900:44:5741900:07:4129103:06:2936700:07:4335803:11:51 07:18:39 
355232 52FAnnette StangMonrovia MD41800:53:2142200:08:0739603:31:1628500:03:1334802:49:14 07:25:09 
356354 45FAngela DecintFalls Church VA38200:46:2238600:05:4740503:38:3836000:05:5935002:51:45 07:28:29 
357383 32FSarah PottertonVirginia Beach VA37100:45:0330400:04:2841603:49:02     07:29:09 
358278 66MJim VanceCulpeper VA42000:54:3736200:05:1539203:29:4831500:03:5435503:02:10 07:35:43 
359282 52FBarbara ZanottiBurke FL42100:55:0641400:07:1341003:41:1135200:04:5734902:49:22 07:37:49 
360346 52MCharles CampbellLeesburg VA21100:38:2934900:05:0842804:26:1136600:07:1829302:24:14 07:41:18 
361237 59FDeb WolfeCentreville VA43201:11:3641500:07:2040303:35:3830300:03:3634502:45:31 07:43:40 
362335 51FHope MegonigalVienna VA21800:38:4535000:05:0940403:37:4224400:02:4736003:20:27 07:44:48 
363351 33FElizabeth FoxAlexandria VA42200:56:5536800:05:2341403:45:5731800:03:5635302:58:27 07:50:35 
364471A36FKatie HeroldFairfax VA29300:41:1931900:04:3842003:53:3832400:04:0435903:16:12 07:59:49 
365401 53MMike MitchellWashington DC42901:01:1442700:08:47       08:01:49 
366168 35FElynn WalterWashington DC41500:51:4641700:07:3042604:12:1929100:03:1835603:02:22 08:17:14 

** Results are for the private use of participants and are the Intellectual Property of Set Up Events. Unauthorized use of these results is prohibited.